Terminal Aerodrome Forecast
Issued by NWS

Home | Current Version | Previous Version | Text Only | Print | Product List | Glossary On
Versions: 1 2 3 4 5 6 7 8 9 10 11 12 13 14 15 16 17 18 19 20 21 22
000
FTUS43 KGRR 222300
TAFLAN
TAF
KLAN 222324Z 2300/2324 06005KT P6SM BKN050
     FM230500 10002KT 4SM BR SCT050
     FM230800 08003KT 2SM BR OVC025
     FM231000 09003KT 1/4SM FG BKN001
     FM231400 09004KT 4SM BR OVC025
     FM231600 09006KT P6SM SCT050=

USA.gov is the U.S. government's official web portal to all federal, state and local government web resources and services.